TimeCST,TemperatureF,Dew PointF,Humidity,Sea Level PressureIn,VisibilityMPH,Wind Direction,Wind SpeedMPH,Gust SpeedMPH,PrecipitationIn,Events,Conditions,WindDirDegrees,DateUTC
12:53 AM,43.0,34.0,71,30.07,10.0,ENE,3.5,-,N/A,,Clear,60,2013-02-21 06:53:00
1:53 AM,41.0,37.0,86,30.06,10.0,Calm,Calm,-,N/A,,Partly Cloudy,0,2013-02-21 07:53:00
2:53 AM,43.0,35.1,74,30.03,10.0,NNE,3.5,-,N/A,,Partly Cloudy,30,2013-02-21 08:53:00
3:53 AM,44.1,35.1,71,30.02,10.0,NNE,4.6,-,N/A,,Clear,20,2013-02-21 09:53:00
4:53 AM,45.0,36.0,71,30.04,10.0,NNE,4.6,-,N/A,,Overcast,20,2013-02-21 10:53:00
5:53 AM,46.9,35.1,63,30.04,10.0,ENE,4.6,-,N/A,,Overcast,70,2013-02-21 11:53:00
6:40 AM,48.2,33.8,58,30.04,10.0,ENE,4.6,-,N/A,,Overcast,60,2013-02-21 12:40:00
6:53 AM,48.0,35.1,61,30.05,10.0,NE,4.6,-,N/A,,Overcast,50,2013-02-21 12:53:00
7:41 AM,51.8,37.4,58,30.05,10.0,ENE,6.9,-,N/A,,Overcast,60,2013-02-21 13:41:00
7:53 AM,51.1,37.9,61,30.06,10.0,ENE,6.9,-,N/A,,Overcast,70,2013-02-21 13:53:00
8:39 AM,55.4,39.2,54,30.06,10.0,East,8.1,-,N/A,,Overcast,90,2013-02-21 14:39:00
8:53 AM,55.9,42.1,60,30.06,10.0,East,6.9,-,N/A,,Overcast,80,2013-02-21 14:53:00
9:53 AM,60.1,46.9,62,30.05,10.0,ESE,13.8,-,N/A,,Overcast,120,2013-02-21 15:53:00
10:03 AM,60.8,46.4,59,30.04,10.0,ESE,12.7,-,N/A,,Overcast,110,2013-02-21 16:03:00
10:53 AM,63.0,50.0,63,30.03,10.0,ESE,11.5,21.9,N/A,,Overcast,120,2013-02-21 16:53:00
11:53 AM,63.0,52.0,67,30.00,10.0,ESE,15.0,24.2,N/A,,Mostly Cloudy,120,2013-02-21 17:53:00
12:37 PM,64.4,55.4,73,29.97,10.0,SE,18.4,26.5,N/A,,Overcast,130,2013-02-21 18:37:00
12:53 PM,63.0,55.0,75,29.97,10.0,SE,13.8,24.2,N/A,,Overcast,130,2013-02-21 18:53:00
1:53 PM,64.9,57.0,75,29.92,10.0,ESE,11.5,25.3,N/A,,Scattered Clouds,120,2013-02-21 19:53:00
2:44 PM,64.4,59.0,83,29.90,10.0,SE,15.0,25.3,N/A,,Mostly Cloudy,130,2013-02-21 20:44:00
2:53 PM,64.9,59.0,81,29.91,10.0,SE,15.0,24.2,N/A,,Overcast,140,2013-02-21 20:53:00
3:21 PM,64.4,60.8,88,29.90,10.0,SE,13.8,-,N/A,,Overcast,130,2013-02-21 21:21:00
3:53 PM,64.9,60.1,84,29.89,10.0,SE,11.5,21.9,N/A,,Overcast,130,2013-02-21 21:53:00
4:53 PM,64.9,60.1,84,29.88,10.0,SE,15.0,24.2,N/A,,Partly Cloudy,140,2013-02-21 22:53:00
5:53 PM,64.0,60.1,87,29.89,10.0,SE,9.2,-,N/A,,Overcast,130,2013-02-21 23:53:00
6:53 PM,64.0,60.1,87,29.90,10.0,SE,10.4,-,N/A,,Mostly Cloudy,140,2013-02-22 00:53:00
7:53 PM,64.9,62.1,90,29.90,10.0,SSE,12.7,20.7,N/A,,Overcast,150,2013-02-22 01:53:00
8:19 PM,66.2,62.6,88,29.90,10.0,SSE,13.8,21.9,N/A,,Overcast,150,2013-02-22 02:19:00
8:53 PM,66.0,62.1,87,29.91,10.0,SSE,13.8,20.7,N/A,,Overcast,150,2013-02-22 02:53:00
9:00 PM,66.2,62.6,88,29.91,10.0,SSE,9.2,-,N/A,,Overcast,150,2013-02-22 03:00:00
9:37 PM,64.4,62.6,94,29.91,10.0,SSE,11.5,19.6,N/A,,Overcast,150,2013-02-22 03:37:00
9:53 PM,66.0,63.0,90,29.91,9.0,SSE,12.7,21.9,N/A,,Overcast,150,2013-02-22 03:53:00
10:53 PM,66.0,63.0,90,29.91,8.0,SSE,9.2,-,N/A,,Overcast,150,2013-02-22 04:53:00
11:23 PM,66.2,64.4,94,29.91,8.0,SSE,11.5,-,N/A,,Overcast,150,2013-02-22 05:23:00
11:53 PM,66.0,64.0,93,29.91,7.0,South,5.8,-,N/A,,Overcast,170,2013-02-22 05:53:00